Weather at Maputo Airport

Public forecast

Using degrees Celsius for public forecast. Weather courtesy of forecast.io.

Current aviation weather report (METAR) for Maputo Airport

Report is more than 6 hours old.

2022/11/14 15:00 (retrieved 2 years ago)

FQMA 141500Z 15015KT 9999 SCT020 25/18 Q1019 NOSIG

Aviation forecast (TAF) for Maputo Airport

Forecast is more than 12 hours old.

2023/02/22 18:16 (retrieved 1 year ago)

TAF FQMA 221600Z 2218/2324 15010KT 9999 SCT015 BKN020 TX30/2313Z TN21/2303Z BECMG 2300/2302 24008KT SCT020 BECMG 2312/2314 15014KT BECMG 2319/2321 25008KT FEW025